Time;durP1;ratioP1;P1;durP2;ratioP2;P2;SDS_P1;SDS_P2;PMS_P1;PMS_P2;Temp;Humidity;BMP_temperature;BMP_pressure;BME280_temperature;BME280_humidity;BME280_pressure;Samples;Min_cycle;Max_cycle;Signal;HPM_P1;HPM_P2
2023/12/04 00:02:53;;;;;;;39.90;23.00;;;;;;;-4.28;85.14;99468.44;226221;1275;23151;-75
2023/12/04 00:07:56;;;;;;;44.20;24.20;;;;;;;-4.20;85.25;99472.16;226201;1273;23472;-75
2023/12/04 00:12:58;;;;;;;39.80;22.00;;;;;;;-4.15;85.52;99468.61;226118;1275;22597;-76
2023/12/04 00:18:00;;;;;;;42.30;23.20;;;;;;;-4.15;85.35;99465.38;226229;1275;22616;-76
2023/12/04 00:23:02;;;;;;;45.20;25.30;;;;;;;-4.18;85.12;99471.38;226204;1269;22588;-77
2023/12/04 00:28:04;;;;;;;49.90;25.50;;;;;;;-4.21;85.21;99467.23;226089;1254;23064;-75
2023/12/04 00:33:07;;;;;;;46.00;24.20;;;;;;;-4.21;85.05;99468.80;226184;1272;22678;-77
2023/12/04 00:38:09;;;;;;;44.50;23.30;;;;;;;-4.23;85.69;99473.50;226162;1272;24218;-76
2023/12/04 00:43:11;;;;;;;47.00;24.00;;;;;;;-4.27;85.26;99476.96;226249;1273;22594;-76
2023/12/04 00:48:13;;;;;;;46.00;24.20;;;;;;;-4.28;85.17;99471.71;226204;1275;22621;-76
2023/12/04 00:53:16;;;;;;;49.30;25.60;;;;;;;-4.27;85.51;99470.44;225976;1276;22610;-76
2023/12/04 00:58:18;;;;;;;49.60;26.40;;;;;;;-4.25;85.46;99474.31;226182;1257;23096;-75
2023/12/04 01:03:20;;;;;;;53.00;27.40;;;;;;;-4.24;85.72;99477.02;226187;1263;22743;-75
2023/12/04 01:08:22;;;;;;;47.90;25.80;;;;;;;-4.28;85.68;99482.54;226113;1275;22645;-76
2023/12/04 01:13:26;;;;;;;50.20;26.60;;;;;;;-4.30;85.43;99484.55;226146;1276;22615;-76
2023/12/04 01:18:29;;;;;;;45.70;24.20;;;;;;;-4.32;85.35;99485.16;226174;1259;22684;-75
2023/12/04 01:23:31;;;;;;;45.00;25.20;;;;;;;-4.34;85.53;99482.69;226165;1254;22961;-75
2023/12/04 01:28:33;;;;;;;51.60;25.70;;;;;;;-4.35;85.64;99480.84;226175;1273;22608;-75
2023/12/04 01:33:35;;;;;;;44.80;24.50;;;;;;;-4.35;85.58;99480.67;226221;1254;22809;-75
2023/12/04 01:38:38;;;;;;;46.60;24.80;;;;;;;-4.36;85.68;99480.55;226127;1275;22564;-75
2023/12/04 01:43:40;;;;;;;43.70;24.10;;;;;;;-4.39;85.60;99483.79;226328;1272;22612;-76
2023/12/04 01:48:42;;;;;;;49.50;26.30;;;;;;;-4.43;85.67;99487.42;226245;1273;23554;-75
2023/12/04 01:53:45;;;;;;;46.10;24.30;;;;;;;-4.49;85.77;99491.51;226212;1275;22578;-75
2023/12/04 01:58:47;;;;;;;63.30;29.60;;;;;;;-4.57;85.44;99488.31;226165;1272;22654;-75
2023/12/04 02:03:50;;;;;;;59.60;30.30;;;;;;;-4.64;85.61;99485.36;226201;1272;22626;-75
2023/12/04 02:08:52;;;;;;;59.30;29.30;;;;;;;-4.68;85.87;99486.58;226191;1275;22761;-75
2023/12/04 02:13:54;;;;;;;55.40;28.30;;;;;;;-4.69;85.89;99483.06;226068;1276;23110;-76
2023/12/04 02:18:56;;;;;;;48.80;26.40;;;;;;;-4.67;86.20;99481.91;226210;1275;22608;-76
2023/12/04 02:23:58;;;;;;;49.20;26.30;;;;;;;-4.63;86.05;99470.04;226111;1275;23076;-75
2023/12/04 02:29:07;;;;;;;46.00;24.10;;;;;;;-4.61;86.16;99471.50;226088;1275;22682;-76
2023/12/04 02:34:13;;;;;;;49.60;25.10;;;;;;;-4.59;86.01;99476.89;226247;1272;22540;-75
2023/12/04 02:39:15;;;;;;;44.10;24.30;;;;;;;-4.56;86.40;99466.59;226236;1272;22650;-75
2023/12/04 02:44:17;;;;;;;48.80;26.50;;;;;;;-4.50;86.22;99465.11;226230;1274;22605;-75
2023/12/04 02:49:19;;;;;;;42.40;24.50;;;;;;;-4.54;86.32;99463.41;226268;1273;22629;-74
2023/12/04 02:54:21;;;;;;;47.70;25.50;;;;;;;-4.71;85.97;99470.27;226156;1273;22885;-76
2023/12/04 02:59:23;;;;;;;50.90;26.60;;;;;;;-4.87;85.96;99475.38;226249;1275;22660;-75
2023/12/04 03:04:29;;;;;;;49.20;26.90;;;;;;;-4.99;86.32;99471.45;226271;1275;22651;-74
2023/12/04 03:09:32;;;;;;;54.20;27.90;;;;;;;-5.06;86.60;99468.05;226374;1275;22705;-75
2023/12/04 03:14:50;;;;;;;54.70;30.20;;;;;;;-5.12;86.64;99464.86;226093;1275;22590;-75
2023/12/04 03:19:52;;;;;;;54.80;31.00;;;;;;;-5.19;86.65;99461.92;226203;1275;23129;-76
2023/12/04 03:24:54;;;;;;;54.70;31.40;;;;;;;-5.28;86.54;99466.52;226185;1270;22599;-75
2023/12/04 03:29:56;;;;;;;59.00;33.20;;;;;;;-5.43;86.36;99478.04;226210;1274;22634;-76
2023/12/04 03:34:58;;;;;;;57.40;30.30;;;;;;;-5.57;86.62;99483.10;226221;1275;22558;-74
2023/12/04 03:40:00;;;;;;;46.10;26.30;;;;;;;-5.69;86.60;99487.80;226250;1275;22725;-75
2023/12/04 03:45:04;;;;;;;46.70;26.80;;;;;;;-5.83;86.36;99500.79;226242;1273;22627;-74
2023/12/04 03:50:06;;;;;;;48.50;26.60;;;;;;;-6.01;86.26;99497.50;226478;1273;23190;-76
2023/12/04 03:55:09;;;;;;;45.50;27.10;;;;;;;-6.19;86.03;99499.81;226100;1275;22604;-74
2023/12/04 04:00:13;;;;;;;50.10;27.30;;;;;;;-6.34;86.20;99497.89;226140;1275;22728;-74
2023/12/04 04:05:15;;;;;;;51.90;28.40;;;;;;;-6.48;86.23;99507.71;226640;1274;22600;-74
2023/12/04 04:10:17;;;;;;;49.20;28.30;;;;;;;-6.60;86.34;99514.92;226150;1273;22719;-75
2023/12/04 04:15:20;;;;;;;53.70;29.60;;;;;;;-6.71;86.25;99509.04;226112;1275;22778;-75
2023/12/04 04:20:23;;;;;;;57.00;31.80;;;;;;;-6.82;86.29;99509.48;226170;1265;22659;-74
2023/12/04 04:25:25;;;;;;;60.10;32.20;;;;;;;-6.92;86.57;99511.23;226282;1275;22642;-74
2023/12/04 04:30:27;;;;;;;64.30;34.30;;;;;;;-7.01;86.58;99510.42;226252;1276;22658;-76
2023/12/04 04:35:29;;;;;;;58.20;32.80;;;;;;;-7.11;86.64;99511.99;226248;1273;25071;-76
2023/12/04 04:40:32;;;;;;;64.30;36.80;;;;;;;-7.18;86.73;99511.77;226162;1273;23257;-75
2023/12/04 04:45:34;;;;;;;63.80;35.90;;;;;;;-7.24;86.75;99508.74;226261;1272;22556;-75
2023/12/04 04:50:36;;;;;;;64.50;36.20;;;;;;;-7.29;86.77;99508.10;226168;1273;22720;-74
2023/12/04 04:55:38;;;;;;;64.30;36.00;;;;;;;-7.36;86.86;99499.98;226060;1275;22700;-75
2023/12/04 05:00:50;;;;;;;70.10;35.80;;;;;;;-7.45;86.75;99496.40;226174;1275;22695;-74
2023/12/04 05:05:52;;;;;;;68.60;37.40;;;;;;;-7.51;86.96;99493.36;226199;1276;23276;-74
2023/12/04 05:10:55;;;;;;;66.50;36.10;;;;;;;-7.56;86.93;99491.48;226207;1275;22704;-75
2023/12/04 05:15:57;;;;;;;64.00;34.60;;;;;;;-7.62;86.92;99495.48;226165;1274;25596;-74
2023/12/04 05:20:59;;;;;;;62.00;33.90;;;;;;;-7.68;87.03;99489.21;226238;1276;22647;-75
2023/12/04 05:26:01;;;;;;;60.40;33.60;;;;;;;-7.71;87.04;99484.36;226145;1258;22667;-74
2023/12/04 05:31:03;;;;;;;68.50;35.30;;;;;;;-7.74;87.15;99484.98;226161;1276;22764;-75
2023/12/04 05:36:06;;;;;;;68.70;36.50;;;;;;;-7.76;87.10;99478.07;226054;1275;22635;-75
2023/12/04 05:41:08;;;;;;;65.70;35.20;;;;;;;-7.80;87.21;99483.83;226117;1270;22652;-75
2023/12/04 05:46:10;;;;;;;65.90;34.90;;;;;;;-7.81;87.27;99491.55;226180;1275;25431;-76
2023/12/04 05:51:13;;;;;;;71.10;38.50;;;;;;;-7.78;87.60;99496.27;226210;1275;23432;-76
2023/12/04 05:56:16;;;;;;;69.10;37.90;;;;;;;-7.69;87.85;99491.30;226179;1273;22596;-76
2023/12/04 06:01:18;;;;;;;64.80;33.40;;;;;;;-7.68;87.45;99488.50;226266;1275;22721;-75
2023/12/04 06:06:20;;;;;;;72.60;36.00;;;;;;;-7.78;87.07;99488.05;226238;1269;22677;-76
2023/12/04 06:11:22;;;;;;;57.90;33.10;;;;;;;-7.91;86.94;99491.75;226241;1273;24371;-75
2023/12/04 06:16:24;;;;;;;62.20;32.60;;;;;;;-8.02;87.02;99488.59;226145;1259;22765;-76
2023/12/04 06:21:27;;;;;;;63.60;32.60;;;;;;;-8.11;86.94;99487.70;226245;1272;27458;-75
2023/12/04 06:26:31;;;;;;;71.50;36.00;;;;;;;-8.18;87.23;99480.77;226115;1273;22773;-76
2023/12/04 06:31:34;;;;;;;69.00;35.80;;;;;;;-8.20;87.25;99478.28;226169;1273;23110;-75
2023/12/04 06:36:39;;;;;;;72.10;37.80;;;;;;;-8.22;87.35;99481.06;226010;1273;22876;-75
2023/12/04 06:41:43;;;;;;;79.90;40.50;;;;;;;-8.21;87.62;99471.32;226165;1270;23244;-75
2023/12/04 06:46:50;;;;;;;79.00;40.00;;;;;;;-8.17;87.71;99471.88;226159;1273;22813;-76
2023/12/04 06:51:52;;;;;;;73.30;38.80;;;;;;;-8.11;87.88;99477.95;226239;1267;22636;-76
2023/12/04 06:56:54;;;;;;;78.90;40.60;;;;;;;-8.02;87.88;99474.90;226108;1259;22713;-75
2023/12/04 07:01:56;;;;;;;76.00;38.70;;;;;;;-7.92;87.96;99470.11;226069;1254;22698;-75
2023/12/04 07:07:04;;;;;;;77.20;38.50;;;;;;;-7.81;88.10;99469.00;225769;1256;22722;-76
2023/12/04 07:12:07;;;;;;;77.00;39.20;;;;;;;-7.66;88.06;99475.98;226588;1269;22629;-75
2023/12/04 07:17:09;;;;;;;77.30;40.20;;;;;;;-7.50;88.24;99478.62;225919;1269;22544;-70
2023/12/04 07:22:11;;;;;;;84.10;40.90;;;;;;;-7.34;88.36;99487.59;225963;1253;22781;-71
2023/12/04 07:27:13;;;;;;;79.70;42.10;;;;;;;-7.20;88.53;99486.68;225991;1253;22783;-71
2023/12/04 07:32:15;;;;;;;74.30;39.30;;;;;;;-7.04;88.36;99494.94;225917;1269;23997;-70
2023/12/04 07:37:17;;;;;;;80.50;41.00;;;;;;;-6.86;88.70;99494.90;225890;1251;23215;-70
2023/12/04 07:42:19;;;;;;;84.20;41.60;;;;;;;-6.61;88.85;99483.77;225811;1256;23226;-72
2023/12/04 07:47:22;;;;;;;81.10;43.20;;;;;;;-6.13;89.18;99480.86;225795;1255;22798;-70
2023/12/04 07:52:27;;;;;;;86.40;43.20;;;;;;;-5.85;88.96;99477.72;225929;1253;22617;-74
2023/12/04 07:57:29;;;;;;;79.90;41.80;;;;;;;-5.51;88.87;99473.06;225846;1256;22758;-75
2023/12/04 08:02:31;;;;;;;77.50;39.70;;;;;;;-5.35;88.21;99470.75;225720;1253;22905;-74
2023/12/04 08:07:34;;;;;;;71.00;38.00;;;;;;;-5.20;88.40;99469.89;225730;1254;23529;-73
2023/12/04 08:12:36;;;;;;;72.80;38.50;;;;;;;-5.09;88.06;99466.09;225849;1253;22603;-76
2023/12/04 08:17:38;;;;;;;71.60;38.20;;;;;;;-4.94;88.12;99466.60;225640;1253;22693;-75
2023/12/04 08:22:43;;;;;;;67.80;36.30;;;;;;;-4.75;88.33;99467.90;225659;1256;22650;-75
2023/12/04 08:27:45;;;;;;;60.20;33.30;;;;;;;-4.36;88.32;99472.30;226720;1253;22624;-76
2023/12/04 08:32:47;;;;;;;57.70;31.50;;;;;;;-4.04;88.11;99470.63;225871;1253;22704;-75
2023/12/04 08:37:50;;;;;;;55.80;31.80;;;;;;;-3.65;87.79;99462.71;225774;1253;22677;-79
2023/12/04 08:42:53;;;;;;;52.10;28.80;;;;;;;-3.64;86.45;99465.95;225860;1256;25491;-76
2023/12/04 08:47:56;;;;;;;48.30;27.90;;;;;;;-3.60;86.51;99471.73;225735;1261;23294;-75
2023/12/04 08:52:58;;;;;;;52.10;29.50;;;;;;;-3.27;87.12;99471.69;225972;1256;22594;-77
2023/12/04 08:58:00;;;;;;;51.50;30.40;;;;;;;-3.12;86.80;99462.77;226035;1256;22521;-77
2023/12/04 09:03:03;;;;;;;50.90;29.30;;;;;;;-2.98;86.78;99453.34;226016;1254;22566;-79
2023/12/04 09:08:11;;;;;;;51.30;29.20;;;;;;;-2.86;86.65;99449.53;225935;1255;23281;-74
2023/12/04 09:13:34;;;;;;;45.70;27.10;;;;;;;-2.72;86.64;99449.23;225852;1264;25467;-75
2023/12/04 09:18:36;;;;;;;43.90;26.30;;;;;;;-2.56;86.62;99447.45;225874;1253;22659;-76
2023/12/04 09:23:38;;;;;;;43.80;26.00;;;;;;;-2.46;86.38;99446.34;225884;1264;22561;-78
2023/12/04 09:28:40;;;;;;;43.90;23.80;;;;;;;-2.38;86.25;99443.27;225606;1253;23029;-74
2023/12/04 09:33:42;;;;;;;39.70;23.50;;;;;;;-2.25;86.22;99442.71;225811;1253;22680;-74
2023/12/04 09:38:46;;;;;;;38.90;22.10;;;;;;;-2.17;85.87;99429.61;225894;1267;22584;-78
2023/12/04 09:43:51;;;;;;;34.80;20.90;;;;;;;-2.05;85.80;99422.14;225505;1252;22580;-80
2023/12/04 09:48:54;;;;;;;34.70;21.20;;;;;;;-1.86;85.82;99416.69;225871;1251;22474;-78
2023/12/04 09:54:03;;;;;;;36.40;21.80;;;;;;;-1.65;85.23;99408.64;226195;1255;22566;-77
2023/12/04 09:59:08;;;;;;;33.90;21.30;;;;;;;-1.50;84.78;99407.15;225711;1253;22676;-76
2023/12/04 10:04:10;;;;;;;30.00;19.40;;;;;;;-1.42;84.21;99402.15;226418;1256;22541;-76
2023/12/04 10:09:13;;;;;;;33.70;20.00;;;;;;;-1.32;84.27;99398.61;225707;1252;24718;-75
2023/12/04 10:14:18;;;;;;;35.50;20.10;;;;;;;-1.11;84.57;99394.44;225862;1256;22570;-76
2023/12/04 10:19:28;;;;;;;39.50;22.20;;;;;;;-0.88;84.82;99381.55;225971;1269;22558;-77
2023/12/04 10:24:35;;;;;;;35.60;21.50;;;;;;;-0.68;84.62;99369.50;225934;1263;22564;-76
2023/12/04 10:29:47;;;;;;;32.00;19.00;;;;;;;-0.52;84.21;99361.11;225804;1259;23766;-76
2023/12/04 10:34:50;;;;;;;32.40;19.10;;;;;;;-0.41;83.59;99352.93;225827;1259;22508;-77
2023/12/04 10:39:53;;;;;;;32.40;19.40;;;;;;;-0.28;83.68;99347.73;225802;1253;22547;-76
2023/12/04 10:44:57;;;;;;;38.20;22.50;;;;;;;-0.19;83.14;99343.30;225731;1262;22739;-76
2023/12/04 10:49:59;;;;;;;31.50;18.50;;;;;;;-0.18;82.45;99333.38;225967;1259;22611;-75
2023/12/04 10:55:02;;;;;;;31.20;18.30;;;;;;;-0.15;82.46;99337.10;225965;1272;23324;-75
2023/12/04 11:00:09;;;;;;;31.50;18.60;;;;;;;-0.03;82.74;99331.78;226556;1269;22545;-74
2023/12/04 11:05:16;;;;;;;29.70;18.10;;;;;;;0.07;82.48;99332.31;225773;1269;23063;-75
2023/12/04 11:10:24;;;;;;;26.70;16.20;;;;;;;0.12;82.07;99323.12;225753;1269;24944;-72
2023/12/04 11:15:29;;;;;;;26.90;16.50;;;;;;;0.19;81.89;99319.30;226213;1253;22989;-73
2023/12/04 11:20:37;;;;;;;28.80;16.70;;;;;;;0.24;81.57;99317.69;225967;1253;22544;-75
2023/12/04 11:25:39;;;;;;;28.30;15.50;;;;;;;0.31;81.61;99314.91;225987;1275;169743;-72
2023/12/04 11:30:43;;;;;;;23.80;14.50;;;;;;;0.36;81.04;99308.90;225954;1269;22543;-76
2023/12/04 11:35:45;;;;;;;23.80;15.10;;;;;;;0.36;80.67;99304.56;225732;1263;22579;-76
2023/12/04 11:40:47;;;;;;;32.20;16.40;;;;;;;0.38;80.50;99294.55;225740;1269;22537;-76
2023/12/04 11:45:49;;;;;;;24.20;14.10;;;;;;;0.44;80.35;99288.58;225884;1262;22550;-74
2023/12/04 11:50:51;;;;;;;24.20;15.10;;;;;;;0.45;79.62;99291.40;226028;1269;23000;-74
2023/12/04 11:55:57;;;;;;;25.70;16.40;;;;;;;0.42;79.43;99284.36;226071;1269;22610;-73
2023/12/04 12:01:00;;;;;;;23.70;15.50;;;;;;;0.58;79.94;99272.61;226572;1267;22600;-79
2023/12/04 12:06:04;;;;;;;24.70;16.20;;;;;;;0.76;79.79;99270.91;225697;1259;22546;-74
2023/12/04 12:11:07;;;;;;;22.70;14.30;;;;;;;0.85;79.46;99254.48;225982;1269;22561;-73
2023/12/04 12:16:10;;;;;;;23.10;14.30;;;;;;;0.87;78.70;99247.25;225799;1269;22544;-74
2023/12/04 12:21:12;;;;;;;22.80;14.50;;;;;;;0.83;78.36;99235.73;225817;1264;22599;-74
2023/12/04 12:26:15;;;;;;;25.00;16.20;;;;;;;0.74;78.15;99226.05;225797;1265;22528;-75
2023/12/04 12:31:17;;;;;;;23.90;14.90;;;;;;;0.71;78.24;99220.70;225815;1275;22550;-73
2023/12/04 12:36:20;;;;;;;21.20;14.40;;;;;;;0.64;77.89;99217.55;225911;1269;22643;-74
2023/12/04 12:41:22;;;;;;;21.90;14.40;;;;;;;0.52;77.72;99218.10;226039;1268;23941;-73
2023/12/04 12:46:25;;;;;;;25.90;16.00;;;;;;;0.42;78.10;99208.13;226030;1264;22593;-72
2023/12/04 12:51:28;;;;;;;28.30;17.40;;;;;;;0.32;77.87;99191.55;226018;1259;22574;-73
2023/12/04 12:56:31;;;;;;;41.30;23.30;;;;;;;0.21;77.77;99180.77;225969;1273;22694;-72
2023/12/04 13:01:33;;;;;;;42.40;25.20;;;;;;;0.14;77.68;99179.54;225757;1251;22533;-76
2023/12/04 13:06:35;;;;;;;42.70;24.00;;;;;;;0.05;77.51;99178.65;225728;1261;22549;-74
2023/12/04 13:11:38;;;;;;;41.50;23.50;;;;;;;-0.05;77.28;99172.77;226142;1256;22551;-74
2023/12/04 13:16:40;;;;;;;37.60;23.40;;;;;;;-0.05;77.37;99165.52;226084;1269;22539;-75
2023/12/04 13:21:45;;;;;;;41.10;23.90;;;;;;;-0.02;77.40;99158.21;225836;1253;22572;-77
2023/12/04 13:26:47;;;;;;;37.60;22.80;;;;;;;0.05;77.51;99152.33;226063;1256;22585;-78
2023/12/04 13:31:50;;;;;;;34.00;20.10;;;;;;;0.09;77.68;99151.84;225963;1269;22553;-76
2023/12/04 13:36:53;;;;;;;30.10;18.80;;;;;;;0.02;77.35;99144.02;225814;1269;23022;-77
2023/12/04 13:47:16;;;;;;;33.90;21.40;;;;;;;-0.32;76.87;99130.64;225661;1273;22615;-77
2023/12/04 13:52:22;;;;;;;29.30;16.40;;;;;;;-0.43;77.26;99123.61;225673;1269;24211;-77
2023/12/04 13:57:32;;;;;;;29.60;16.80;;;;;;;-0.48;77.59;99114.66;225797;1269;22550;-76
2023/12/04 14:02:37;;;;;;;29.10;17.10;;;;;;;-0.57;77.64;99112.02;225758;1268;22627;-77
2023/12/04 14:07:39;;;;;;;29.30;17.40;;;;;;;-0.68;77.76;99105.38;225933;1269;22565;-78
2023/12/04 14:12:44;;;;;;;34.20;19.50;;;;;;;-0.84;77.32;99096.70;225896;1272;22612;-77
2023/12/04 14:17:46;;;;;;;41.20;21.90;;;;;;;-1.14;76.93;99094.96;226248;1269;22718;-76
2023/12/04 14:22:48;;;;;;;40.20;22.80;;;;;;;-1.40;77.00;99090.94;225793;1272;22545;-75
2023/12/04 14:27:50;;;;;;;38.20;22.40;;;;;;;-1.66;77.35;99080.09;225767;1272;22713;-75
2023/12/04 14:32:53;;;;;;;43.30;23.80;;;;;;;-1.87;77.17;99085.33;225720;1256;22536;-76
2023/12/04 14:37:55;;;;;;;52.20;28.60;;;;;;;-2.14;77.29;99082.96;226025;1253;22571;-76
2023/12/04 14:42:57;;;;;;;50.20;28.50;;;;;;;-2.38;77.76;99083.68;225950;1269;23945;-76
2023/12/04 14:48:00;;;;;;;51.70;28.40;;;;;;;-2.54;77.73;99086.30;225944;1269;22616;-77
2023/12/04 15:19:28;;;;;;;58.80;32.40;;;;;;;-2.86;79.05;99072.48;225920;1275;22565;-77
2023/12/04 15:24:30;;;;;;;54.40;31.60;;;;;;;-2.93;79.32;99069.09;226165;1272;22576;-76
2023/12/04 15:29:33;;;;;;;57.20;32.00;;;;;;;-3.00;79.32;99060.76;226273;1261;22697;-76
2023/12/04 15:34:35;;;;;;;65.10;36.90;;;;;;;-3.04;79.46;99059.86;226461;1275;22538;-76
2023/12/04 15:39:37;;;;;;;67.90;35.80;;;;;;;-3.07;79.66;99058.83;226438;1269;22536;-76
2023/12/04 15:44:39;;;;;;;66.20;36.80;;;;;;;-3.08;79.75;99059.02;226377;1272;23263;-76
2023/12/04 15:49:41;;;;;;;66.10;36.80;;;;;;;-3.09;79.73;99054.28;226417;1275;22769;-76
2023/12/04 15:54:43;;;;;;;50.40;28.10;;;;;;;-3.13;79.79;99053.16;226332;1274;22612;-75
2023/12/04 15:59:45;;;;;;;47.10;27.50;;;;;;;-3.07;80.27;99047.09;226347;1275;22628;-75
2023/12/04 16:04:47;;;;;;;44.00;26.20;;;;;;;-2.96;80.23;99047.10;226309;1272;22562;-75
2023/12/04 16:09:49;;;;;;;40.60;24.90;;;;;;;-2.87;80.40;99038.56;226320;1272;22567;-75
2023/12/04 16:14:51;;;;;;;36.00;19.60;;;;;;;-2.82;80.12;99031.73;226281;1269;22634;-75
2023/12/04 16:19:56;;;;;;;38.70;23.90;;;;;;;-2.77;80.08;99031.02;226358;1272;24244;-76
2023/12/04 16:24:58;;;;;;;40.50;22.60;;;;;;;-2.71;80.16;99027.25;226311;1275;22576;-75
2023/12/04 16:30:01;;;;;;;37.60;21.80;;;;;;;-2.69;80.27;99022.42;226304;1273;22806;-75
2023/12/04 16:35:05;;;;;;;37.40;22.30;;;;;;;-2.69;80.09;99020.35;226290;1275;22593;-75
2023/12/04 16:40:08;;;;;;;37.30;21.60;;;;;;;-2.70;79.94;99009.20;226319;1269;22544;-75
2023/12/04 16:45:10;;;;;;;34.50;21.00;;;;;;;-2.72;79.74;98999.88;226271;1272;22534;-74
2023/12/04 16:50:13;;;;;;;40.00;21.60;;;;;;;-2.77;79.96;99001.22;226345;1272;22587;-74
2023/12/04 16:55:14;;;;;;;38.50;21.40;;;;;;;-2.76;80.17;98998.08;226206;1275;22662;-75
2023/12/04 17:00:17;;;;;;;36.90;22.10;;;;;;;-2.76;80.22;98997.57;226349;1272;24694;-75
2023/12/04 17:05:19;;;;;;;40.60;21.60;;;;;;;-2.73;80.40;98994.44;226285;1275;22980;-75
2023/12/04 17:10:22;;;;;;;37.60;21.90;;;;;;;-2.69;80.12;98991.95;226336;1272;22566;-76
2023/12/04 17:15:24;;;;;;;33.40;18.90;;;;;;;-2.71;80.31;98987.23;226391;1272;22594;-76
2023/12/04 17:20:27;;;;;;;34.60;19.90;;;;;;;-2.76;80.06;98982.21;226329;1274;22664;-75
2023/12/04 17:25:30;;;;;;;38.70;20.30;;;;;;;-2.80;80.22;98973.46;226399;1266;22592;-75
2023/12/04 17:30:32;;;;;;;36.20;18.80;;;;;;;-2.81;80.26;98971.37;226373;1270;22558;-75
2023/12/04 17:35:34;;;;;;;34.60;20.00;;;;;;;-2.78;80.65;98973.70;226245;1275;22586;-75
2023/12/04 17:40:36;;;;;;;33.90;19.70;;;;;;;-2.77;80.54;98971.43;226330;1256;22591;-75
2023/12/04 17:45:38;;;;;;;33.70;18.80;;;;;;;-2.76;80.72;98967.08;226385;1272;22674;-75
2023/12/04 17:50:41;;;;;;;39.50;22.00;;;;;;;-2.77;80.46;98955.23;226385;1275;24527;-75
2023/12/04 17:55:43;;;;;;;34.20;21.00;;;;;;;-2.77;80.20;98968.35;226248;1275;22651;-75
2023/12/04 18:00:45;;;;;;;37.40;21.40;;;;;;;-2.81;80.51;98966.33;226267;1275;22750;-75
2023/12/04 18:05:47;;;;;;;41.30;24.30;;;;;;;-2.83;80.56;98959.21;226352;1272;22576;-76
2023/12/04 18:10:50;;;;;;;38.40;22.90;;;;;;;-2.86;80.24;98954.59;226346;1272;22590;-75
2023/12/04 18:15:54;;;;;;;44.90;25.10;;;;;;;-2.89;80.28;98942.04;226390;1253;23635;-76
2023/12/04 18:20:56;;;;;;;46.00;24.00;;;;;;;-2.96;80.03;98938.17;226337;1275;22805;-74
2023/12/04 18:25:58;;;;;;;42.90;25.10;;;;;;;-3.03;80.15;98941.10;226325;1253;22897;-74
2023/12/04 18:31:01;;;;;;;41.70;23.40;;;;;;;-3.07;80.13;98946.30;226341;1275;24787;-75
2023/12/04 18:36:05;;;;;;;41.50;25.00;;;;;;;-3.14;80.13;98951.30;226453;1272;22591;-75
2023/12/04 18:41:08;;;;;;;44.20;23.70;;;;;;;-3.18;80.51;98947.88;226199;1270;25634;-74
2023/12/04 18:46:13;;;;;;;43.50;24.60;;;;;;;-3.16;80.51;98939.48;226395;1272;23110;-75
2023/12/04 18:51:16;;;;;;;41.30;23.10;;;;;;;-3.19;80.33;98920.91;226359;1265;22647;-75
2023/12/04 18:56:20;;;;;;;38.40;21.40;;;;;;;-3.22;80.53;98915.20;226160;1275;22600;-75
2023/12/04 19:01:24;;;;;;;39.60;23.00;;;;;;;-3.31;80.52;98923.38;226376;1275;22590;-74
2023/12/04 19:06:26;;;;;;;42.10;24.20;;;;;;;-3.40;80.41;98917.05;226323;1275;23192;-74
2023/12/04 19:11:30;;;;;;;42.20;24.40;;;;;;;-3.44;80.84;98905.33;226302;1272;22704;-74
2023/12/04 19:16:32;;;;;;;43.00;25.20;;;;;;;-3.44;81.02;98911.98;226360;1254;22976;-74
2023/12/04 19:21:34;;;;;;;42.70;24.70;;;;;;;-3.40;80.75;98910.21;226327;1275;25581;-74
2023/12/04 19:26:36;;;;;;;40.50;21.20;;;;;;;-3.36;80.79;98895.98;226139;1275;23879;-74
2023/12/04 19:31:38;;;;;;;41.30;24.40;;;;;;;-3.39;80.92;98892.73;226372;1275;22710;-74
2023/12/04 19:36:42;;;;;;;38.80;22.50;;;;;;;-3.46;80.72;98879.26;226352;1273;25484;-74
2023/12/04 19:41:45;;;;;;;36.70;22.70;;;;;;;-3.50;80.79;98870.04;226582;1272;22577;-74
2023/12/04 19:46:47;;;;;;;43.20;25.40;;;;;;;-3.52;80.92;98873.30;226321;1275;22604;-74
2023/12/04 19:51:49;;;;;;;44.20;26.30;;;;;;;-3.53;81.35;98870.94;226316;1272;22573;-74
2023/12/04 19:56:51;;;;;;;51.60;28.30;;;;;;;-3.53;81.01;98883.30;226303;1275;24402;-74
2023/12/04 20:01:53;;;;;;;50.90;28.40;;;;;;;-3.51;81.35;98885.40;226285;1257;24533;-75
2023/12/04 20:06:55;;;;;;;49.90;25.30;;;;;;;-3.42;81.40;98875.59;226298;1275;22642;-74
2023/12/04 20:12:00;;;;;;;47.50;27.70;;;;;;;-3.44;81.40;98872.05;226331;1275;23191;-74
2023/12/04 20:17:03;;;;;;;43.60;23.50;;;;;;;-3.50;80.91;98872.14;226357;1272;22575;-74
2023/12/04 20:22:06;;;;;;;42.70;24.10;;;;;;;-3.58;81.35;98881.38;226319;1276;26764;-74
2023/12/04 20:27:08;;;;;;;45.70;23.50;;;;;;;-3.68;81.27;98891.00;226397;1272;22775;-75
2023/12/04 20:32:10;;;;;;;52.10;26.60;;;;;;;-3.73;81.23;98889.23;226338;1276;22667;-74
2023/12/04 20:37:12;;;;;;;53.70;28.70;;;;;;;-3.77;81.42;98880.39;226371;1254;22880;-75
2023/12/04 20:42:17;;;;;;;50.00;26.00;;;;;;;-3.83;81.41;98869.73;226296;1276;22608;-75
2023/12/04 20:47:19;;;;;;;51.50;29.40;;;;;;;-3.87;81.44;98866.23;226312;1273;22574;-75
2023/12/04 20:52:22;;;;;;;51.00;27.80;;;;;;;-3.85;81.49;98868.13;226313;1266;23114;-75
2023/12/04 20:57:24;;;;;;;56.00;27.30;;;;;;;-3.86;81.16;98863.77;226318;1275;22616;-75
2023/12/04 21:02:26;;;;;;;56.70;31.10;;;;;;;-3.92;81.70;98852.77;226315;1276;22641;-74
2023/12/04 21:07:28;;;;;;;49.10;24.30;;;;;;;-3.88;81.55;98844.27;226306;1264;22683;-74
2023/12/04 21:12:31;;;;;;;51.70;29.10;;;;;;;-3.85;82.12;98845.61;226298;1275;22588;-75
2023/12/04 21:17:33;;;;;;;57.80;30.20;;;;;;;-3.83;82.00;98847.89;226363;1273;22611;-74
2023/12/04 21:22:35;;;;;;;57.30;31.60;;;;;;;-3.77;82.14;98839.28;226333;1273;22663;-74
2023/12/04 21:27:38;;;;;;;63.00;34.30;;;;;;;-3.73;82.13;98816.09;226304;1275;22741;-75
2023/12/04 21:32:40;;;;;;;58.90;30.60;;;;;;;-3.72;81.89;98807.64;226407;1275;22627;-75
2023/12/04 21:37:42;;;;;;;53.90;29.60;;;;;;;-3.67;82.18;98802.98;226355;1275;22663;-75
2023/12/04 21:42:44;;;;;;;54.30;30.90;;;;;;;-3.61;82.44;98793.13;226378;1275;22603;-75
2023/12/04 21:47:46;;;;;;;50.10;29.30;;;;;;;-3.59;82.08;98792.30;226335;1275;22576;-75
2023/12/04 21:52:48;;;;;;;45.20;25.30;;;;;;;-3.55;82.05;98781.70;226356;1275;22596;-76
2023/12/04 21:57:50;;;;;;;46.30;26.80;;;;;;;-3.56;81.93;98776.59;226346;1275;22568;-75
2023/12/04 22:02:53;;;;;;;41.50;24.30;;;;;;;-3.60;82.05;98771.02;226417;1273;22558;-75
2023/12/04 22:07:56;;;;;;;46.10;26.10;;;;;;;-3.68;81.50;98761.42;226366;1275;23038;-75
2023/12/04 22:12:58;;;;;;;41.70;22.50;;;;;;;-3.76;81.72;98758.46;226339;1275;22685;-74
2023/12/04 22:18:00;;;;;;;51.20;27.70;;;;;;;-3.81;81.66;98756.95;226259;1275;22577;-76
2023/12/04 22:23:04;;;;;;;50.20;27.50;;;;;;;-3.90;81.67;98744.94;226268;1275;22594;-75
2023/12/04 22:28:06;;;;;;;41.60;21.50;;;;;;;-3.92;82.08;98744.37;226524;1275;22569;-75
2023/12/04 22:33:09;;;;;;;45.00;27.70;;;;;;;-3.86;82.09;98739.00;226197;1266;22744;-75
2023/12/04 22:38:11;;;;;;;46.80;25.60;;;;;;;-3.84;82.14;98731.98;226139;1273;22642;-75
2023/12/04 22:43:19;;;;;;;47.10;26.60;;;;;;;-3.82;82.11;98729.45;226217;1275;22607;-75
2023/12/04 22:48:22;;;;;;;45.60;25.10;;;;;;;-3.79;82.02;98722.88;226213;1273;22630;-75
2023/12/04 22:53:24;;;;;;;51.30;28.00;;;;;;;-3.77;82.04;98720.71;226178;1273;22592;-75
2023/12/04 22:58:26;;;;;;;48.00;25.20;;;;;;;-3.80;82.30;98715.89;226257;1275;22685;-75
2023/12/04 23:03:28;;;;;;;50.40;28.30;;;;;;;-3.80;82.23;98715.22;226227;1274;22623;-75
2023/12/04 23:08:30;;;;;;;47.70;25.80;;;;;;;-3.80;82.08;98706.11;226257;1275;22681;-74
2023/12/04 23:13:32;;;;;;;50.20;23.80;;;;;;;-3.78;82.23;98701.32;226197;1275;22583;-74
2023/12/04 23:18:34;;;;;;;50.10;28.60;;;;;;;-3.78;82.29;98703.40;226350;1273;22642;-74
2023/12/04 23:23:36;;;;;;;55.70;29.10;;;;;;;-3.81;81.66;98702.52;226035;1275;190799;-74
2023/12/04 23:28:38;;;;;;;60.20;31.00;;;;;;;-3.89;81.85;98698.94;226331;1270;22708;-74